Disclaimer

Please do not use the information listed here in-flight or in-navigation, as they are not provided to us by the airports but are provided by volunteers, so they might be outdated.

Search


Regions


Airport information page

Radio informations:
Approach/Tower (APP/TWR) - 118.75 MHz

Airport informations:
Latitude: 33° 05' 06.46" S
Longitude: 064° 15' 40.73" W
Elevation: 1381 feet - 421 meters
Operating hours: Remarks
Operating agency: Military-civil joint use airport
Timezone: UTC-3
Fuel: JP-4, Wide cut turbine fuel MIL Spec T-5624

Jet A1, without icing nhibitor.

100/130 MIL Spec, low lead, aviation gasoline (BLUE)

Runway information:
05/23 - 7374 x 164 feet< - >2248 x 50 meters
18/36 - 6808 x 164 feet< - >2075 x 50 meters

Recent METARs:
SAOC 211600Z 36022G33KT CAVOK 34/15 Q1006
SAOC 211700Z 34019KT CAVOK 34/16 Q1006
SAOC 211700Z 34019KT CAVOK 34/16 Q1006

Airport on the map: